Washington, District of Columbia
Traffic Map
Current Weather Conditions
Washington, District of Columbia
Overcast Haze
Overcast
11°
Feels Like: 11°
Wind Chill: 11° Ceiling: 700
Heat Index: 11° Visibility: 6mi
Dew Point: Wind: 12mph
Humidity: 89% Direction: 70° (ENE)
Pressure: 30.17in Gusts: 0mph
Raw Report DataKDCA 301102Z 07010KT 6SM BR FEW005 OVC007 11/09 A3017 RMK AO2 T01060089
Traffic Incident Summary
Active as of:
Severity:
Category:
InformationThere was an issue retrieving the traffic information for this location. Please try a different location or try again shortly.
Advertisements
Track Severe Weather on mobile